sensor_id;sensor_type;location;lat;lon;timestamp;P1;durP1;ratioP1;P2;durP2;ratioP2
57433;SDS011;43277;52.672;6.984;2023-06-01T00:00:32;13.27;;;5.38;;
57433;SDS011;43277;52.672;6.984;2023-06-01T00:02:57;13.00;;;5.72;;
57433;SDS011;43277;52.672;6.984;2023-06-01T00:05:23;11.90;;;4.90;;
57433;SDS011;43277;52.672;6.984;2023-06-01T00:07:49;14.02;;;5.43;;
57433;SDS011;43277;52.672;6.984;2023-06-01T00:10:14;13.68;;;5.70;;
57433;SDS011;43277;52.672;6.984;2023-06-01T00:12:40;15.35;;;5.82;;
57433;SDS011;43277;52.672;6.984;2023-06-01T00:15:05;15.30;;;6.20;;
57433;SDS011;43277;52.672;6.984;2023-06-01T00:17:32;14.27;;;5.72;;
57433;SDS011;43277;52.672;6.984;2023-06-01T00:19:57;18.40;;;6.13;;
57433;SDS011;43277;52.672;6.984;2023-06-01T00:22:26;10.38;;;5.03;;
57433;SDS011;43277;52.672;6.984;2023-06-01T00:24:59;12.13;;;5.28;;
57433;SDS011;43277;52.672;6.984;2023-06-01T00:27:25;12.60;;;5.50;;
57433;SDS011;43277;52.672;6.984;2023-06-01T00:29:50;12.93;;;5.57;;
57433;SDS011;43277;52.672;6.984;2023-06-01T00:32:16;13.27;;;5.90;;
57433;SDS011;43277;52.672;6.984;2023-06-01T00:34:41;16.23;;;6.28;;
57433;SDS011;43277;52.672;6.984;2023-06-01T00:37:07;14.05;;;6.15;;
57433;SDS011;43277;52.672;6.984;2023-06-01T00:39:33;17.30;;;6.15;;
57433;SDS011;43277;52.672;6.984;2023-06-01T00:41:58;16.27;;;5.75;;
57433;SDS011;43277;52.672;6.984;2023-06-01T00:44:24;13.38;;;5.95;;
57433;SDS011;43277;52.672;6.984;2023-06-01T00:46:50;16.25;;;6.50;;
57433;SDS011;43277;52.672;6.984;2023-06-01T00:49:16;14.82;;;6.20;;
57433;SDS011;43277;52.672;6.984;2023-06-01T00:51:42;14.77;;;6.00;;
57433;SDS011;43277;52.672;6.984;2023-06-01T00:54:07;37.22;;;7.40;;
57433;SDS011;43277;52.672;6.984;2023-06-01T00:56:33;15.30;;;6.00;;
57433;SDS011;43277;52.672;6.984;2023-06-01T00:59:00;15.13;;;6.00;;
57433;SDS011;43277;52.672;6.984;2023-06-01T01:01:26;16.48;;;5.70;;
57433;SDS011;43277;52.672;6.984;2023-06-01T01:03:51;13.73;;;5.60;;
57433;SDS011;43277;52.672;6.984;2023-06-01T01:12:09;15.13;;;5.35;;
57433;SDS011;43277;52.672;6.984;2023-06-01T01:14:39;15.43;;;5.63;;
57433;SDS011;43277;52.672;6.984;2023-06-01T01:17:28;16.00;;;5.60;;
57433;SDS011;43277;52.672;6.984;2023-06-01T01:20:12;14.85;;;5.95;;
57433;SDS011;43277;52.672;6.984;2023-06-01T01:23:09;15.57;;;5.63;;
57433;SDS011;43277;52.672;6.984;2023-06-01T01:31:08;13.00;;;5.28;;
57433;SDS011;43277;52.672;6.984;2023-06-01T01:33:37;17.95;;;6.00;;
57433;SDS011;43277;52.672;6.984;2023-06-01T01:36:04;12.75;;;5.13;;
57433;SDS011;43277;52.672;6.984;2023-06-01T01:38:35;13.65;;;5.20;;
57433;SDS011;43277;52.672;6.984;2023-06-01T01:41:01;14.50;;;5.57;;
57433;SDS011;43277;52.672;6.984;2023-06-01T01:43:27;13.02;;;5.30;;
57433;SDS011;43277;52.672;6.984;2023-06-01T01:45:57;14.52;;;5.60;;
57433;SDS011;43277;52.672;6.984;2023-06-01T01:48:36;12.60;;;5.63;;
57433;SDS011;43277;52.672;6.984;2023-06-01T01:51:13;12.40;;;5.45;;
57433;SDS011;43277;52.672;6.984;2023-06-01T01:53:44;14.60;;;5.68;;
57433;SDS011;43277;52.672;6.984;2023-06-01T01:56:11;15.18;;;5.70;;
57433;SDS011;43277;52.672;6.984;2023-06-01T01:58:39;15.65;;;5.85;;
57433;SDS011;43277;52.672;6.984;2023-06-01T02:01:05;17.13;;;6.00;;
57433;SDS011;43277;52.672;6.984;2023-06-01T02:03:33;16.63;;;6.03;;
57433;SDS011;43277;52.672;6.984;2023-06-01T02:05:58;15.25;;;5.32;;
57433;SDS011;43277;52.672;6.984;2023-06-01T02:08:24;13.90;;;5.47;;
57433;SDS011;43277;52.672;6.984;2023-06-01T02:10:50;17.90;;;6.18;;
57433;SDS011;43277;52.672;6.984;2023-06-01T02:13:15;16.67;;;6.40;;
57433;SDS011;43277;52.672;6.984;2023-06-01T02:15:41;16.10;;;6.03;;
57433;SDS011;43277;52.672;6.984;2023-06-01T02:18:06;13.75;;;6.13;;
57433;SDS011;43277;52.672;6.984;2023-06-01T02:20:32;13.63;;;6.30;;
57433;SDS011;43277;52.672;6.984;2023-06-01T02:22:58;19.08;;;6.40;;
57433;SDS011;43277;52.672;6.984;2023-06-01T02:25:23;16.20;;;6.00;;
57433;SDS011;43277;52.672;6.984;2023-06-01T02:27:49;17.38;;;6.68;;
57433;SDS011;43277;52.672;6.984;2023-06-01T02:30:15;13.52;;;6.40;;
57433;SDS011;43277;52.672;6.984;2023-06-01T02:32:41;16.48;;;6.57;;
57433;SDS011;43277;52.672;6.984;2023-06-01T02:35:10;14.25;;;6.72;;
57433;SDS011;43277;52.672;6.984;2023-06-01T02:37:36;14.93;;;6.22;;
57433;SDS011;43277;52.672;6.984;2023-06-01T02:40:01;16.98;;;6.85;;
57433;SDS011;43277;52.672;6.984;2023-06-01T02:42:27;17.45;;;7.10;;
57433;SDS011;43277;52.672;6.984;2023-06-01T02:44:53;16.52;;;6.93;;
57433;SDS011;43277;52.672;6.984;2023-06-01T02:47:19;13.10;;;6.15;;
57433;SDS011;43277;52.672;6.984;2023-06-01T02:49:44;15.73;;;6.80;;
57433;SDS011;43277;52.672;6.984;2023-06-01T02:52:10;15.85;;;6.97;;
57433;SDS011;43277;52.672;6.984;2023-06-01T02:54:35;14.82;;;6.60;;
57433;SDS011;43277;52.672;6.984;2023-06-01T02:57:01;17.35;;;6.88;;
57433;SDS011;43277;52.672;6.984;2023-06-01T02:59:26;15.45;;;6.90;;
57433;SDS011;43277;52.672;6.984;2023-06-01T03:01:52;18.38;;;7.15;;
57433;SDS011;43277;52.672;6.984;2023-06-01T03:04:18;17.30;;;6.85;;
57433;SDS011;43277;52.672;6.984;2023-06-01T03:06:43;15.43;;;6.40;;
57433;SDS011;43277;52.672;6.984;2023-06-01T03:09:10;14.65;;;6.47;;
57433;SDS011;43277;52.672;6.984;2023-06-01T03:11:41;17.88;;;6.70;;
57433;SDS011;43277;52.672;6.984;2023-06-01T03:14:07;14.57;;;6.38;;
57433;SDS011;43277;52.672;6.984;2023-06-01T03:16:33;14.57;;;6.60;;
57433;SDS011;43277;52.672;6.984;2023-06-01T03:19:00;16.63;;;6.43;;
57433;SDS011;43277;52.672;6.984;2023-06-01T03:21:25;15.25;;;7.00;;
57433;SDS011;43277;52.672;6.984;2023-06-01T03:23:52;14.50;;;6.35;;
57433;SDS011;43277;52.672;6.984;2023-06-01T03:26:18;14.27;;;6.15;;
57433;SDS011;43277;52.672;6.984;2023-06-01T03:28:46;13.57;;;6.50;;
57433;SDS011;43277;52.672;6.984;2023-06-01T03:31:12;15.45;;;6.65;;
57433;SDS011;43277;52.672;6.984;2023-06-01T03:33:38;17.25;;;6.75;;
57433;SDS011;43277;52.672;6.984;2023-06-01T03:36:04;16.45;;;7.28;;
57433;SDS011;43277;52.672;6.984;2023-06-01T03:38:32;17.92;;;7.18;;
57433;SDS011;43277;52.672;6.984;2023-06-01T03:40:59;18.20;;;7.13;;
57433;SDS011;43277;52.672;6.984;2023-06-01T03:43:24;17.90;;;6.60;;
57433;SDS011;43277;52.672;6.984;2023-06-01T03:45:50;18.73;;;6.75;;
57433;SDS011;43277;52.672;6.984;2023-06-01T03:48:16;18.40;;;6.45;;
57433;SDS011;43277;52.672;6.984;2023-06-01T03:50:41;16.08;;;6.50;;
57433;SDS011;43277;52.672;6.984;2023-06-01T03:53:07;15.73;;;6.63;;
57433;SDS011;43277;52.672;6.984;2023-06-01T03:55:32;18.77;;;7.07;;
57433;SDS011;43277;52.672;6.984;2023-06-01T03:57:59;13.77;;;7.00;;
57433;SDS011;43277;52.672;6.984;2023-06-01T04:00:27;16.25;;;6.85;;
57433;SDS011;43277;52.672;6.984;2023-06-01T04:02:54;15.70;;;6.45;;
57433;SDS011;43277;52.672;6.984;2023-06-01T04:05:21;14.02;;;6.72;;
57433;SDS011;43277;52.672;6.984;2023-06-01T04:07:48;14.98;;;6.45;;
57433;SDS011;43277;52.672;6.984;2023-06-01T04:10:16;16.58;;;6.20;;
57433;SDS011;43277;52.672;6.984;2023-06-01T04:12:42;14.10;;;6.13;;
57433;SDS011;43277;52.672;6.984;2023-06-01T04:15:09;14.40;;;5.82;;
57433;SDS011;43277;52.672;6.984;2023-06-01T04:17:36;13.15;;;5.30;;
57433;SDS011;43277;52.672;6.984;2023-06-01T04:20:03;14.82;;;6.07;;
57433;SDS011;43277;52.672;6.984;2023-06-01T04:22:31;13.48;;;5.68;;
57433;SDS011;43277;52.672;6.984;2023-06-01T04:24:57;14.68;;;5.35;;
57433;SDS011;43277;52.672;6.984;2023-06-01T04:27:23;14.27;;;5.40;;
57433;SDS011;43277;52.672;6.984;2023-06-01T04:29:49;12.07;;;5.50;;
57433;SDS011;43277;52.672;6.984;2023-06-01T04:32:15;11.48;;;4.90;;
57433;SDS011;43277;52.672;6.984;2023-06-01T04:34:46;10.50;;;4.82;;
57433;SDS011;43277;52.672;6.984;2023-06-01T04:37:15;13.95;;;5.28;;
57433;SDS011;43277;52.672;6.984;2023-06-01T04:39:40;10.77;;;5.00;;
57433;SDS011;43277;52.672;6.984;2023-06-01T04:42:10;10.40;;;5.10;;
57433;SDS011;43277;52.672;6.984;2023-06-01T04:44:38;15.23;;;5.50;;
57433;SDS011;43277;52.672;6.984;2023-06-01T04:47:06;12.57;;;5.53;;
57433;SDS011;43277;52.672;6.984;2023-06-01T04:49:32;11.93;;;5.28;;
57433;SDS011;43277;52.672;6.984;2023-06-01T04:51:59;13.20;;;5.20;;
57433;SDS011;43277;52.672;6.984;2023-06-01T04:54:25;11.88;;;5.30;;
57433;SDS011;43277;52.672;6.984;2023-06-01T04:56:51;11.20;;;5.05;;
57433;SDS011;43277;52.672;6.984;2023-06-01T04:59:17;9.98;;;5.05;;
57433;SDS011;43277;52.672;6.984;2023-06-01T05:01:42;10.88;;;4.72;;
57433;SDS011;43277;52.672;6.984;2023-06-01T05:04:08;12.82;;;5.30;;
57433;SDS011;43277;52.672;6.984;2023-06-01T05:06:33;15.73;;;5.95;;
57433;SDS011;43277;52.672;6.984;2023-06-01T05:08:59;11.65;;;5.10;;
57433;SDS011;43277;52.672;6.984;2023-06-01T05:11:25;11.93;;;4.80;;
57433;SDS011;43277;52.672;6.984;2023-06-01T05:13:50;13.13;;;5.80;;
57433;SDS011;43277;52.672;6.984;2023-06-01T05:16:17;12.70;;;5.80;;
57433;SDS011;43277;52.672;6.984;2023-06-01T05:18:43;15.05;;;6.50;;
57433;SDS011;43277;52.672;6.984;2023-06-01T05:21:08;15.07;;;6.55;;
57433;SDS011;43277;52.672;6.984;2023-06-01T05:23:34;17.27;;;6.28;;
57433;SDS011;43277;52.672;6.984;2023-06-01T05:25:59;12.38;;;6.00;;
57433;SDS011;43277;52.672;6.984;2023-06-01T05:28:31;13.73;;;6.00;;
57433;SDS011;43277;52.672;6.984;2023-06-01T05:30:57;11.07;;;5.20;;
57433;SDS011;43277;52.672;6.984;2023-06-01T05:33:23;14.48;;;6.00;;
57433;SDS011;43277;52.672;6.984;2023-06-01T05:35:49;10.25;;;4.65;;
57433;SDS011;43277;52.672;6.984;2023-06-01T05:38:14;12.55;;;5.60;;
57433;SDS011;43277;52.672;6.984;2023-06-01T05:40:40;13.13;;;5.40;;
57433;SDS011;43277;52.672;6.984;2023-06-01T05:43:06;13.35;;;5.07;;
57433;SDS011;43277;52.672;6.984;2023-06-01T05:45:32;12.80;;;5.15;;
57433;SDS011;43277;52.672;6.984;2023-06-01T05:47:58;10.95;;;5.03;;
57433;SDS011;43277;52.672;6.984;2023-06-01T05:50:24;11.15;;;4.80;;
57433;SDS011;43277;52.672;6.984;2023-06-01T05:52:50;10.35;;;5.03;;
57433;SDS011;43277;52.672;6.984;2023-06-01T05:55:16;11.15;;;5.38;;
57433;SDS011;43277;52.672;6.984;2023-06-01T05:57:41;9.95;;;4.60;;
57433;SDS011;43277;52.672;6.984;2023-06-01T06:00:07;10.48;;;5.00;;
57433;SDS011;43277;52.672;6.984;2023-06-01T06:02:37;11.77;;;5.10;;
57433;SDS011;43277;52.672;6.984;2023-06-01T06:05:03;11.43;;;4.60;;
57433;SDS011;43277;52.672;6.984;2023-06-01T06:07:29;10.85;;;4.70;;
57433;SDS011;43277;52.672;6.984;2023-06-01T06:09:55;12.00;;;4.85;;
57433;SDS011;43277;52.672;6.984;2023-06-01T06:12:21;11.65;;;4.57;;
57433;SDS011;43277;52.672;6.984;2023-06-01T06:14:46;10.73;;;4.75;;
57433;SDS011;43277;52.672;6.984;2023-06-01T06:17:13;9.95;;;4.50;;
57433;SDS011;43277;52.672;6.984;2023-06-01T06:19:39;10.10;;;4.60;;
57433;SDS011;43277;52.672;6.984;2023-06-01T06:22:08;12.43;;;5.13;;
57433;SDS011;43277;52.672;6.984;2023-06-01T06:24:34;13.40;;;5.25;;
57433;SDS011;43277;52.672;6.984;2023-06-01T06:26:59;12.60;;;4.97;;
57433;SDS011;43277;52.672;6.984;2023-06-01T06:29:25;11.90;;;4.85;;
57433;SDS011;43277;52.672;6.984;2023-06-01T06:31:51;11.32;;;5.30;;
57433;SDS011;43277;52.672;6.984;2023-06-01T06:34:16;12.15;;;5.13;;
57433;SDS011;43277;52.672;6.984;2023-06-01T06:36:42;11.68;;;5.55;;
57433;SDS011;43277;52.672;6.984;2023-06-01T06:39:07;13.95;;;5.55;;
57433;SDS011;43277;52.672;6.984;2023-06-01T06:41:33;11.05;;;5.43;;
57433;SDS011;43277;52.672;6.984;2023-06-01T06:43:59;12.43;;;5.70;;
57433;SDS011;43277;52.672;6.984;2023-06-01T06:46:24;13.88;;;5.68;;
57433;SDS011;43277;52.672;6.984;2023-06-01T06:48:50;14.65;;;5.35;;
57433;SDS011;43277;52.672;6.984;2023-06-01T06:51:16;12.00;;;5.30;;
57433;SDS011;43277;52.672;6.984;2023-06-01T06:53:41;12.38;;;5.78;;
57433;SDS011;43277;52.672;6.984;2023-06-01T06:56:07;11.70;;;5.07;;
57433;SDS011;43277;52.672;6.984;2023-06-01T06:58:33;9.70;;;4.90;;
57433;SDS011;43277;52.672;6.984;2023-06-01T07:00:59;14.25;;;6.05;;
57433;SDS011;43277;52.672;6.984;2023-06-01T07:03:29;11.48;;;6.03;;
57433;SDS011;43277;52.672;6.984;2023-06-01T07:05:55;15.35;;;5.70;;
57433;SDS011;43277;52.672;6.984;2023-06-01T07:08:21;16.75;;;6.22;;
57433;SDS011;43277;52.672;6.984;2023-06-01T07:10:46;13.73;;;5.45;;
57433;SDS011;43277;52.672;6.984;2023-06-01T07:13:12;11.18;;;5.45;;
57433;SDS011;43277;52.672;6.984;2023-06-01T07:15:38;8.93;;;4.85;;
57433;SDS011;43277;52.672;6.984;2023-06-01T07:18:04;13.40;;;4.97;;
57433;SDS011;43277;52.672;6.984;2023-06-01T07:20:29;10.93;;;4.28;;
57433;SDS011;43277;52.672;6.984;2023-06-01T07:22:55;9.68;;;3.78;;
57433;SDS011;43277;52.672;6.984;2023-06-01T07:25:21;8.48;;;3.40;;
57433;SDS011;43277;52.672;6.984;2023-06-01T07:27:47;10.95;;;3.55;;
57433;SDS011;43277;52.672;6.984;2023-06-01T07:30:13;9.65;;;3.35;;
57433;SDS011;43277;52.672;6.984;2023-06-01T07:32:39;7.35;;;3.08;;
57433;SDS011;43277;52.672;6.984;2023-06-01T07:35:05;7.55;;;2.80;;
57433;SDS011;43277;52.672;6.984;2023-06-01T07:37:32;9.30;;;3.30;;
57433;SDS011;43277;52.672;6.984;2023-06-01T07:39:58;7.43;;;2.65;;
57433;SDS011;43277;52.672;6.984;2023-06-01T07:42:24;8.80;;;3.30;;
57433;SDS011;43277;52.672;6.984;2023-06-01T07:44:50;9.18;;;3.60;;
57433;SDS011;43277;52.672;6.984;2023-06-01T07:47:18;8.50;;;3.00;;
57433;SDS011;43277;52.672;6.984;2023-06-01T07:49:44;9.80;;;3.40;;
57433;SDS011;43277;52.672;6.984;2023-06-01T07:52:09;7.28;;;3.20;;
57433;SDS011;43277;52.672;6.984;2023-06-01T07:54:35;8.68;;;3.50;;
57433;SDS011;43277;52.672;6.984;2023-06-01T07:57:03;7.90;;;3.00;;
57433;SDS011;43277;52.672;6.984;2023-06-01T07:59:30;7.70;;;3.25;;
57433;SDS011;43277;52.672;6.984;2023-06-01T08:01:56;8.77;;;3.20;;
57433;SDS011;43277;52.672;6.984;2023-06-01T08:04:23;6.13;;;2.47;;
57433;SDS011;43277;52.672;6.984;2023-06-01T08:06:49;7.20;;;2.50;;
57433;SDS011;43277;52.672;6.984;2023-06-01T08:09:18;5.45;;;2.20;;
57433;SDS011;43277;52.672;6.984;2023-06-01T08:11:47;6.22;;;2.03;;
57433;SDS011;43277;52.672;6.984;2023-06-01T08:14:13;9.60;;;2.10;;
57433;SDS011;43277;52.672;6.984;2023-06-01T08:16:40;5.10;;;1.88;;
57433;SDS011;43277;52.672;6.984;2023-06-01T08:19:06;6.72;;;2.20;;
57433;SDS011;43277;52.672;6.984;2023-06-01T08:21:33;5.93;;;2.00;;
57433;SDS011;43277;52.672;6.984;2023-06-01T08:24:00;4.68;;;1.70;;
57433;SDS011;43277;52.672;6.984;2023-06-01T08:26:26;5.55;;;1.73;;
57433;SDS011;43277;52.672;6.984;2023-06-01T08:28:52;7.63;;;2.40;;
57433;SDS011;43277;52.672;6.984;2023-06-01T08:31:22;6.25;;;2.33;;
57433;SDS011;43277;52.672;6.984;2023-06-01T08:33:49;8.33;;;2.90;;
57433;SDS011;43277;52.672;6.984;2023-06-01T08:36:20;7.00;;;2.42;;
57433;SDS011;43277;52.672;6.984;2023-06-01T08:38:46;6.15;;;2.40;;
57433;SDS011;43277;52.672;6.984;2023-06-01T08:43:55;7.15;;;2.10;;
57433;SDS011;43277;52.672;6.984;2023-06-01T08:46:24;6.05;;;1.88;;
57433;SDS011;43277;52.672;6.984;2023-06-01T08:48:52;4.93;;;1.70;;
57433;SDS011;43277;52.672;6.984;2023-06-01T08:51:23;5.88;;;2.08;;
57433;SDS011;43277;52.672;6.984;2023-06-01T08:53:49;5.88;;;1.88;;
57433;SDS011;43277;52.672;6.984;2023-06-01T08:56:16;5.40;;;1.80;;
57433;SDS011;43277;52.672;6.984;2023-06-01T08:58:45;5.50;;;1.92;;
57433;SDS011;43277;52.672;6.984;2023-06-01T09:01:16;6.55;;;2.20;;
57433;SDS011;43277;52.672;6.984;2023-06-01T09:03:43;7.55;;;2.47;;
57433;SDS011;43277;52.672;6.984;2023-06-01T09:06:10;8.30;;;2.10;;
57433;SDS011;43277;52.672;6.984;2023-06-01T09:08:35;6.50;;;2.55;;
57433;SDS011;43277;52.672;6.984;2023-06-01T09:11:01;7.03;;;2.20;;
57433;SDS011;43277;52.672;6.984;2023-06-01T09:13:31;6.35;;;2.60;;
57433;SDS011;43277;52.672;6.984;2023-06-01T09:16:00;9.15;;;3.00;;
57433;SDS011;43277;52.672;6.984;2023-06-01T09:18:26;8.73;;;3.05;;
57433;SDS011;43277;52.672;6.984;2023-06-01T09:20:52;6.97;;;2.72;;
57433;SDS011;43277;52.672;6.984;2023-06-01T09:23:28;7.72;;;3.17;;
57433;SDS011;43277;52.672;6.984;2023-06-01T09:26:06;8.18;;;3.05;;
57433;SDS011;43277;52.672;6.984;2023-06-01T09:31:34;6.63;;;2.67;;
57433;SDS011;43277;52.672;6.984;2023-06-01T09:34:01;6.03;;;2.13;;
57433;SDS011;43277;52.672;6.984;2023-06-01T09:36:27;5.35;;;2.00;;
57433;SDS011;43277;52.672;6.984;2023-06-01T09:39:03;6.03;;;1.92;;
57433;SDS011;43277;52.672;6.984;2023-06-01T09:44:24;4.78;;;1.60;;
57433;SDS011;43277;52.672;6.984;2023-06-01T09:46:51;5.22;;;1.88;;
57433;SDS011;43277;52.672;6.984;2023-06-01T09:49:21;4.93;;;1.70;;
57433;SDS011;43277;52.672;6.984;2023-06-01T09:51:52;5.05;;;1.85;;
57433;SDS011;43277;52.672;6.984;2023-06-01T09:57:04;7.10;;;2.00;;
57433;SDS011;43277;52.672;6.984;2023-06-01T09:59:37;5.43;;;1.70;;
57433;SDS011;43277;52.672;6.984;2023-06-01T10:02:05;4.93;;;1.60;;
57433;SDS011;43277;52.672;6.984;2023-06-01T10:04:32;5.65;;;1.73;;
57433;SDS011;43277;52.672;6.984;2023-06-01T10:07:02;6.43;;;1.70;;
57433;SDS011;43277;52.672;6.984;2023-06-01T10:09:27;5.00;;;1.90;;
57433;SDS011;43277;52.672;6.984;2023-06-01T10:11:55;6.57;;;2.00;;
57433;SDS011;43277;52.672;6.984;2023-06-01T10:14:22;5.13;;;1.83;;
57433;SDS011;43277;52.672;6.984;2023-06-01T10:16:50;4.38;;;1.65;;
57433;SDS011;43277;52.672;6.984;2023-06-01T10:19:16;4.88;;;1.70;;
57433;SDS011;43277;52.672;6.984;2023-06-01T10:21:43;5.15;;;1.77;;
57433;SDS011;43277;52.672;6.984;2023-06-01T10:24:10;5.97;;;1.90;;
57433;SDS011;43277;52.672;6.984;2023-06-01T10:26:40;6.10;;;2.05;;
57433;SDS011;43277;52.672;6.984;2023-06-01T10:29:12;5.63;;;2.30;;
57433;SDS011;43277;52.672;6.984;2023-06-01T10:31:41;6.97;;;2.20;;
57433;SDS011;43277;52.672;6.984;2023-06-01T10:34:08;6.57;;;2.10;;
57433;SDS011;43277;52.672;6.984;2023-06-01T10:41:58;5.65;;;2.15;;
57433;SDS011;43277;52.672;6.984;2023-06-01T10:55:39;5.38;;;1.75;;
57433;SDS011;43277;52.672;6.984;2023-06-01T10:57:41;5.70;;;1.92;;
57433;SDS011;43277;52.672;6.984;2023-06-01T11:02:46;4.95;;;1.70;;
57433;SDS011;43277;52.672;6.984;2023-06-01T11:13:24;5.03;;;1.90;;
57433;SDS011;43277;52.672;6.984;2023-06-01T11:18:45;4.78;;;1.77;;
57433;SDS011;43277;52.672;6.984;2023-06-01T11:21:24;7.85;;;2.58;;
57433;SDS011;43277;52.672;6.984;2023-06-01T11:23:53;7.22;;;2.80;;
57433;SDS011;43277;52.672;6.984;2023-06-01T11:26:23;7.80;;;3.08;;
57433;SDS011;43277;52.672;6.984;2023-06-01T11:29:02;10.35;;;3.35;;
57433;SDS011;43277;52.672;6.984;2023-06-01T11:31:46;9.43;;;3.30;;
57433;SDS011;43277;52.672;6.984;2023-06-01T11:34:14;12.65;;;4.22;;
57433;SDS011;43277;52.672;6.984;2023-06-01T11:36:49;11.32;;;3.88;;
57433;SDS011;43277;52.672;6.984;2023-06-01T11:39:20;11.13;;;3.78;;
57433;SDS011;43277;52.672;6.984;2023-06-01T11:41:47;11.13;;;3.92;;
57433;SDS011;43277;52.672;6.984;2023-06-01T11:44:14;11.32;;;3.90;;
57433;SDS011;43277;52.672;6.984;2023-06-01T11:46:53;10.43;;;4.43;;
57433;SDS011;43277;52.672;6.984;2023-06-01T11:49:21;9.57;;;4.75;;
57433;SDS011;43277;52.672;6.984;2023-06-01T11:51:47;11.55;;;4.72;;
57433;SDS011;43277;52.672;6.984;2023-06-01T11:54:13;12.80;;;4.75;;
57433;SDS011;43277;52.672;6.984;2023-06-01T11:56:39;12.43;;;4.63;;
57433;SDS011;43277;52.672;6.984;2023-06-01T11:59:06;10.65;;;4.30;;
57433;SDS011;43277;52.672;6.984;2023-06-01T12:01:37;13.40;;;4.90;;
57433;SDS011;43277;52.672;6.984;2023-06-01T12:04:16;12.63;;;4.65;;
57433;SDS011;43277;52.672;6.984;2023-06-01T12:06:50;11.55;;;4.60;;
57433;SDS011;43277;52.672;6.984;2023-06-01T12:09:16;9.93;;;4.25;;
57433;SDS011;43277;52.672;6.984;2023-06-01T12:11:45;13.40;;;4.60;;
57433;SDS011;43277;52.672;6.984;2023-06-01T12:14:12;11.63;;;3.83;;
57433;SDS011;43277;52.672;6.984;2023-06-01T12:16:51;10.77;;;3.95;;
57433;SDS011;43277;52.672;6.984;2023-06-01T12:19:26;9.88;;;3.67;;
57433;SDS011;43277;52.672;6.984;2023-06-01T12:21:57;10.45;;;3.45;;
57433;SDS011;43277;52.672;6.984;2023-06-01T12:24:27;9.38;;;3.47;;
57433;SDS011;43277;52.672;6.984;2023-06-01T12:29:39;11.40;;;3.58;;
57433;SDS011;43277;52.672;6.984;2023-06-01T12:32:09;11.10;;;3.70;;
57433;SDS011;43277;52.672;6.984;2023-06-01T12:34:37;12.70;;;3.85;;
57433;SDS011;43277;52.672;6.984;2023-06-01T12:37:37;12.70;;;3.65;;
57433;SDS011;43277;52.672;6.984;2023-06-01T12:39:56;11.88;;;3.45;;
57433;SDS011;43277;52.672;6.984;2023-06-01T12:42:37;13.20;;;3.72;;
57433;SDS011;43277;52.672;6.984;2023-06-01T12:45:05;13.48;;;3.58;;
57433;SDS011;43277;52.672;6.984;2023-06-01T12:47:38;17.02;;;3.63;;
57433;SDS011;43277;52.672;6.984;2023-06-01T12:50:06;12.88;;;3.78;;
57433;SDS011;43277;52.672;6.984;2023-06-01T12:52:39;11.70;;;3.85;;
57433;SDS011;43277;52.672;6.984;2023-06-01T12:55:05;14.00;;;3.55;;
57433;SDS011;43277;52.672;6.984;2023-06-01T12:57:32;13.07;;;4.18;;
57433;SDS011;43277;52.672;6.984;2023-06-01T12:59:59;10.40;;;3.55;;
57433;SDS011;43277;52.672;6.984;2023-06-01T13:02:25;9.18;;;3.60;;
57433;SDS011;43277;52.672;6.984;2023-06-01T13:04:50;11.27;;;3.45;;
57433;SDS011;43277;52.672;6.984;2023-06-01T13:07:18;10.88;;;3.20;;
57433;SDS011;43277;52.672;6.984;2023-06-01T13:09:44;14.50;;;3.90;;
57433;SDS011;43277;52.672;6.984;2023-06-01T13:12:09;11.32;;;3.30;;
57433;SDS011;43277;52.672;6.984;2023-06-01T13:14:35;10.13;;;3.90;;
57433;SDS011;43277;52.672;6.984;2023-06-01T13:17:01;10.65;;;3.40;;
57433;SDS011;43277;52.672;6.984;2023-06-01T13:19:30;10.50;;;3.47;;
57433;SDS011;43277;52.672;6.984;2023-06-01T13:21:55;14.45;;;3.63;;
57433;SDS011;43277;52.672;6.984;2023-06-01T13:24:21;12.85;;;4.10;;
57433;SDS011;43277;52.672;6.984;2023-06-01T13:26:47;11.02;;;3.40;;
57433;SDS011;43277;52.672;6.984;2023-06-01T13:29:12;11.30;;;3.70;;
57433;SDS011;43277;52.672;6.984;2023-06-01T13:31:38;11.05;;;4.20;;
57433;SDS011;43277;52.672;6.984;2023-06-01T13:34:04;9.40;;;3.60;;
57433;SDS011;43277;52.672;6.984;2023-06-01T13:36:30;11.35;;;3.72;;
57433;SDS011;43277;52.672;6.984;2023-06-01T13:38:56;10.18;;;3.72;;
57433;SDS011;43277;52.672;6.984;2023-06-01T13:41:22;11.90;;;3.53;;
57433;SDS011;43277;52.672;6.984;2023-06-01T13:43:48;10.43;;;3.30;;
57433;SDS011;43277;52.672;6.984;2023-06-01T13:46:14;12.60;;;3.20;;
57433;SDS011;43277;52.672;6.984;2023-06-01T13:48:40;12.25;;;3.33;;
57433;SDS011;43277;52.672;6.984;2023-06-01T13:51:05;11.82;;;3.50;;
57433;SDS011;43277;52.672;6.984;2023-06-01T13:53:31;10.20;;;3.05;;
57433;SDS011;43277;52.672;6.984;2023-06-01T13:55:58;13.57;;;4.03;;
57433;SDS011;43277;52.672;6.984;2023-06-01T13:58:27;10.77;;;3.47;;
57433;SDS011;43277;52.672;6.984;2023-06-01T14:00:53;13.75;;;3.20;;
57433;SDS011;43277;52.672;6.984;2023-06-01T14:03:18;10.20;;;3.45;;
57433;SDS011;43277;52.672;6.984;2023-06-01T14:05:44;11.13;;;3.38;;
57433;SDS011;43277;52.672;6.984;2023-06-01T14:08:09;13.15;;;3.85;;
57433;SDS011;43277;52.672;6.984;2023-06-01T14:10:35;9.68;;;3.20;;
57433;SDS011;43277;52.672;6.984;2023-06-01T14:13:01;10.48;;;3.30;;
57433;SDS011;43277;52.672;6.984;2023-06-01T14:15:27;11.02;;;3.10;;
57433;SDS011;43277;52.672;6.984;2023-06-01T14:17:53;12.25;;;2.95;;
57433;SDS011;43277;52.672;6.984;2023-06-01T14:20:18;11.25;;;3.58;;
57433;SDS011;43277;52.672;6.984;2023-06-01T14:22:44;8.55;;;2.90;;
57433;SDS011;43277;52.672;6.984;2023-06-01T14:25:10;9.25;;;3.22;;
57433;SDS011;43277;52.672;6.984;2023-06-01T14:27:38;11.10;;;3.15;;
57433;SDS011;43277;52.672;6.984;2023-06-01T14:30:04;10.52;;;3.05;;
57433;SDS011;43277;52.672;6.984;2023-06-01T14:32:30;12.13;;;3.17;;
57433;SDS011;43277;52.672;6.984;2023-06-01T14:34:56;12.38;;;3.35;;
57433;SDS011;43277;52.672;6.984;2023-06-01T14:37:22;12.25;;;3.25;;
57433;SDS011;43277;52.672;6.984;2023-06-01T14:39:48;12.95;;;3.40;;
57433;SDS011;43277;52.672;6.984;2023-06-01T14:42:15;10.52;;;3.20;;
57433;SDS011;43277;52.672;6.984;2023-06-01T14:44:41;10.52;;;3.25;;
57433;SDS011;43277;52.672;6.984;2023-06-01T14:47:07;9.13;;;2.67;;
57433;SDS011;43277;52.672;6.984;2023-06-01T14:49:33;10.23;;;3.42;;
57433;SDS011;43277;52.672;6.984;2023-06-01T14:51:58;12.00;;;3.45;;
57433;SDS011;43277;52.672;6.984;2023-06-01T14:54:24;10.32;;;2.97;;
57433;SDS011;43277;52.672;6.984;2023-06-01T14:56:50;9.85;;;2.63;;
57433;SDS011;43277;52.672;6.984;2023-06-01T14:59:16;9.25;;;3.10;;
57433;SDS011;43277;52.672;6.984;2023-06-01T15:01:42;8.35;;;3.17;;
57433;SDS011;43277;52.672;6.984;2023-06-01T15:04:08;10.40;;;3.45;;
57433;SDS011;43277;52.672;6.984;2023-06-01T15:06:33;10.20;;;3.17;;
57433;SDS011;43277;52.672;6.984;2023-06-01T15:09:01;8.90;;;2.88;;
57433;SDS011;43277;52.672;6.984;2023-06-01T15:11:27;11.77;;;3.00;;
57433;SDS011;43277;52.672;6.984;2023-06-01T15:13:54;11.77;;;3.22;;
57433;SDS011;43277;52.672;6.984;2023-06-01T15:16:20;9.90;;;3.22;;
57433;SDS011;43277;52.672;6.984;2023-06-01T15:18:45;12.90;;;3.47;;
57433;SDS011;43277;52.672;6.984;2023-06-01T15:21:11;9.57;;;3.10;;
57433;SDS011;43277;52.672;6.984;2023-06-01T15:23:37;11.80;;;3.65;;
57433;SDS011;43277;52.672;6.984;2023-06-01T15:26:02;11.55;;;3.28;;
57433;SDS011;43277;52.672;6.984;2023-06-01T15:28:29;11.05;;;3.42;;
57433;SDS011;43277;52.672;6.984;2023-06-01T15:30:55;11.02;;;3.38;;
57433;SDS011;43277;52.672;6.984;2023-06-01T15:33:20;10.77;;;3.28;;